Time;durP1;ratioP1;P1;durP2;ratioP2;P2;SDS_P1;SDS_P2;PMS_P1;PMS_P2;Temp;Humidity;BMP_temperature;BMP_pressure;BME280_temperature;BME280_humidity;BME280_pressure;Samples;Min_cycle;Max_cycle;Signal;HPM_P1;HPM_P2
2023/07/26 00:03:34;;;;;;;3.50;2.50;;;;;;;15.71;100.00;99164.13;180187;1259;43911;-69
2023/07/26 00:07:44;;;;;;;9.00;2.80;;;;;;;15.68;100.00;99173.61;180187;1259;58540;-69
2023/07/26 00:11:48;;;;;;;2.40;1.70;;;;;;;15.65;100.00;99178.77;180186;1259;44906;-69
2023/07/26 00:15:53;;;;;;;4.20;1.70;;;;;;;15.59;100.00;99177.41;180443;1259;46000;-71
2023/07/26 00:19:58;;;;;;;2.40;2.00;;;;;;;15.47;100.00;99178.08;180273;1259;45974;-68
2023/07/26 00:24:07;;;;;;;3.70;1.80;;;;;;;15.41;100.00;99177.50;180476;1259;43523;-70
2023/07/26 00:28:11;;;;;;;3.20;2.00;;;;;;;15.34;100.00;99181.94;180495;1258;59042;-69
2023/07/26 00:32:14;;;;;;;3.40;2.50;;;;;;;15.33;100.00;99194.20;180426;1259;44363;-68
2023/07/26 00:36:18;;;;;;;1.90;1.60;;;;;;;15.32;100.00;99198.98;180412;1259;45940;-70
2023/07/26 00:40:22;;;;;;;5.30;2.20;;;;;;;15.24;100.00;99205.11;180399;1260;46107;-70
2023/07/26 00:44:25;;;;;;;3.50;1.70;;;;;;;15.24;100.00;99210.06;180630;1258;45076;-69
2023/07/26 00:48:28;;;;;;;2.00;1.80;;;;;;;15.25;100.00;99208.30;180400;1260;58488;-70
2023/07/26 00:52:40;;;;;;;3.10;2.90;;;;;;;15.23;100.00;99207.83;180458;1260;45051;-71
2023/07/26 00:56:45;;;;;;;3.80;2.50;;;;;;;15.27;100.00;99203.70;180610;1258;44104;-73
2023/07/26 01:00:50;;;;;;;4.20;2.60;;;;;;;15.33;100.00;99202.84;180404;1259;43992;-73
2023/07/26 01:04:54;;;;;;;3.60;2.50;;;;;;;15.28;100.00;99204.02;180584;1259;45899;-72
2023/07/26 01:09:08;;;;;;;3.20;2.90;;;;;;;15.28;100.00;99208.55;180625;1262;57353;-71
2023/07/26 01:13:36;;;;;;;3.60;2.70;;;;;;;15.30;100.00;99207.66;180699;1258;45894;-71
2023/07/26 01:17:40;;;;;;;4.00;3.20;;;;;;;15.33;100.00;99220.45;180355;1259;45926;-76
2023/07/26 01:21:43;;;;;;;7.20;2.50;;;;;;;15.37;100.00;99221.93;180314;1259;45926;-72
2023/07/26 01:25:51;;;;;;;3.80;3.20;;;;;;;15.39;100.00;99225.73;179658;1260;45968;-76
2023/07/26 01:30:21;;;;;;;5.80;2.70;;;;;;;15.44;100.00;99223.96;179672;1260;58939;-75
2023/07/26 01:34:25;;;;;;;4.80;3.10;;;;;;;15.43;100.00;99224.52;179547;1263;45945;-78
2023/07/26 01:38:54;;;;;;;5.20;3.70;;;;;;;15.25;100.00;99224.56;179320;1259;46082;-76
2023/07/26 01:42:58;;;;;;;6.70;3.80;;;;;;;15.22;100.00;99222.77;179382;1260;45949;-77
2023/07/26 01:47:12;;;;;;;5.20;3.90;;;;;;;15.25;100.00;99220.17;179172;1260;45982;-77
2023/07/26 01:51:17;;;;;;;4.00;3.20;;;;;;;15.22;100.00;99222.44;178388;1262;58720;-76
2023/07/26 01:55:20;;;;;;;6.10;4.10;;;;;;;15.23;100.00;99233.29;178998;1258;45968;-75
2023/07/26 01:59:24;;;;;;;5.70;4.70;;;;;;;15.25;100.00;99236.21;177646;1259;46022;-77
2023/07/26 02:03:27;;;;;;;4.90;4.00;;;;;;;15.28;100.00;99234.58;177616;1261;45961;-78
2023/07/26 02:07:33;;;;;;;11.90;4.50;;;;;;;15.28;100.00;99231.46;176766;1261;46097;-73
2023/07/26 02:11:39;;;;;;;6.80;4.90;;;;;;;15.32;100.00;99232.72;179604;1261;58905;-77
2023/07/26 02:15:51;;;;;;;5.70;4.90;;;;;;;15.36;100.00;99240.34;179911;1259;44837;-73
2023/07/26 02:19:55;;;;;;;9.10;5.80;;;;;;;15.39;100.00;99244.45;180026;1262;46077;-75
2023/07/26 02:24:03;;;;;;;9.00;5.10;;;;;;;15.47;100.00;99242.77;179587;1258;44098;-75
2023/07/26 02:28:07;;;;;;;5.80;5.30;;;;;;;15.57;100.00;99244.57;179328;1261;43828;-76
2023/07/26 02:32:11;;;;;;;6.20;5.40;;;;;;;15.61;100.00;99254.55;179140;1260;58952;-75
2023/07/26 02:36:14;;;;;;;9.10;4.80;;;;;;;15.62;100.00;99261.36;178716;1260;45952;-76
2023/07/26 02:40:18;;;;;;;5.10;4.20;;;;;;;15.59;100.00;99272.05;176545;1262;46114;-76
2023/07/26 02:44:21;;;;;;;6.80;4.80;;;;;;;15.60;100.00;99276.66;177333;1260;46863;-71
2023/07/26 02:48:24;;;;;;;6.40;5.20;;;;;;;15.56;100.00;99284.00;177275;1261;45246;-74
2023/07/26 02:52:28;;;;;;;12.40;6.40;;;;;;;15.52;100.00;99283.27;176841;1263;60220;-75
2023/07/26 02:56:31;;;;;;;6.50;5.50;;;;;;;15.47;100.00;99282.99;177851;1262;45940;-74
2023/07/26 03:00:35;;;;;;;8.60;5.70;;;;;;;15.40;100.00;99288.24;178188;1264;46079;-78
2023/07/26 03:05:30;;;;;;;6.90;6.10;;;;;;;15.47;100.00;99287.40;178365;1259;46193;-77
2023/07/26 03:09:33;;;;;;;5.60;4.00;;;;;;;15.48;100.00;99294.06;176731;1263;46183;-72
2023/07/26 03:13:41;;;;;;;9.10;5.60;;;;;;;15.46;100.00;99306.23;176727;1260;60106;-75
2023/07/26 03:17:45;;;;;;;4.70;3.20;;;;;;;15.44;100.00;99306.33;177096;1258;45975;-74
2023/07/26 03:21:49;;;;;;;5.60;3.90;;;;;;;15.38;100.00;99302.61;179824;1261;45920;-64
2023/07/26 03:25:52;;;;;;;8.70;4.80;;;;;;;15.36;100.00;99301.38;180224;1262;43827;-64
2023/07/26 03:29:56;;;;;;;5.90;5.10;;;;;;;15.30;100.00;99306.92;180113;1259;44687;-65
2023/07/26 03:34:00;;;;;;;7.50;5.00;;;;;;;15.30;100.00;99309.96;180315;1259;58378;-65
2023/07/26 03:38:03;;;;;;;7.80;5.10;;;;;;;15.24;100.00;99318.04;180304;1259;46006;-64
2023/07/26 03:42:07;;;;;;;6.60;5.20;;;;;;;15.30;100.00;99321.18;180183;1258;45997;-64
2023/07/26 03:46:11;;;;;;;7.00;5.60;;;;;;;15.26;100.00;99325.20;180221;1258;46056;-65
2023/07/26 03:50:14;;;;;;;8.60;5.10;;;;;;;15.22;100.00;99326.05;180287;1260;44377;-65
2023/07/26 03:54:20;;;;;;;;;;;;;;;15.23;100.00;99334.35;180277;1260;58940;-65
2023/07/26 03:58:24;;;;;;;6.80;5.00;;;;;;;15.21;100.00;99342.80;180344;1260;44714;-65
2023/07/26 04:02:28;;;;;;;6.00;4.60;;;;;;;15.21;100.00;99348.98;180204;1260;43808;-64
2023/07/26 04:06:32;;;;;;;5.40;4.10;;;;;;;15.20;100.00;99353.46;180220;1259;43569;-65
2023/07/26 04:10:37;;;;;;;10.10;5.70;;;;;;;15.16;100.00;99359.02;180297;1261;44989;-62
2023/07/26 04:14:43;;;;;;;4.50;4.10;;;;;;;15.21;100.00;99357.42;180286;1261;58695;-65
2023/07/26 04:18:47;;;;;;;4.70;4.10;;;;;;;15.19;100.00;99367.45;180096;1257;45993;-64
2023/07/26 04:22:52;;;;;;;5.40;4.20;;;;;;;15.23;100.00;99373.65;180063;1260;46042;-64
2023/07/26 04:26:55;;;;;;;7.80;3.90;;;;;;;15.18;100.00;99370.69;180224;1257;43759;-64
2023/07/26 04:31:04;;;;;;;5.40;4.50;;;;;;;15.19;100.00;99374.91;180183;1259;45403;-65
2023/07/26 04:35:10;;;;;;;14.10;4.00;;;;;;;15.17;100.00;99375.40;180304;1259;58181;-64
2023/07/26 04:39:14;;;;;;;6.80;4.40;;;;;;;15.28;100.00;99383.35;180239;1260;43615;-65
2023/07/26 04:43:21;;;;;;;4.10;3.70;;;;;;;15.27;100.00;99394.55;180384;1260;43815;-66
2023/07/26 04:47:25;;;;;;;8.60;4.30;;;;;;;15.24;100.00;99400.93;180138;1260;45964;-66
2023/07/26 04:51:29;;;;;;;4.70;4.20;;;;;;;15.21;100.00;99408.36;180286;1260;44924;-66
2023/07/26 04:55:57;;;;;;;5.50;4.90;;;;;;;15.21;100.00;99412.61;180201;1262;58423;-66
2023/07/26 05:00:01;;;;;;;5.70;4.80;;;;;;;15.18;100.00;99414.77;180139;1258;46125;-63
2023/07/26 05:04:05;;;;;;;6.00;5.40;;;;;;;15.15;100.00;99411.86;180146;1260;43713;-63
2023/07/26 05:08:09;;;;;;;12.90;4.40;;;;;;;15.19;100.00;99407.17;180243;1259;45899;-64
2023/07/26 05:12:19;;;;;;;6.30;4.50;;;;;;;15.13;100.00;99410.49;180451;1259;43569;-61
2023/07/26 05:16:23;;;;;;;10.10;4.50;;;;;;;15.15;100.00;99421.86;177498;1260;58082;-83
2023/07/26 05:20:26;;;;;;;10.60;4.90;;;;;;;15.19;100.00;99425.85;177034;1259;46363;-82
2023/07/26 05:24:30;;;;;;;10.10;6.10;;;;;;;15.21;100.00;99432.64;177491;1258;46114;-83
2023/07/26 05:28:33;;;;;;;6.40;4.60;;;;;;;15.21;100.00;99432.23;177139;1259;46207;-83
2023/07/26 05:32:36;;;;;;;5.20;4.40;;;;;;;15.19;100.00;99441.09;178793;1259;46013;-84
2023/07/26 05:36:40;;;;;;;7.60;5.20;;;;;;;15.26;100.00;99446.84;177972;1260;59260;-83
2023/07/26 05:40:43;;;;;;;9.70;5.40;;;;;;;15.31;100.00;99452.53;177178;1262;46113;-83
2023/07/26 05:44:46;;;;;;;17.70;4.70;;;;;;;15.34;100.00;99454.56;177431;1263;46209;-83
2023/07/26 05:48:49;;;;;;;8.20;6.40;;;;;;;15.37;100.00;99456.11;177739;1259;46200;-84
2023/07/26 05:52:53;;;;;;;9.00;5.70;;;;;;;15.39;100.00;99465.34;177297;1263;46128;-83
2023/07/26 05:56:56;;;;;;;6.40;4.20;;;;;;;15.36;100.00;99472.13;178394;1259;58546;-84
2023/07/26 06:00:59;;;;;;;6.10;5.40;;;;;;;15.36;100.00;99467.34;178256;1259;46191;-83
2023/07/26 06:05:02;;;;;;;7.30;6.00;;;;;;;15.36;100.00;99475.71;177515;1260;46113;-83
2023/07/26 06:09:06;;;;;;;7.30;5.70;;;;;;;15.35;100.00;99477.80;177624;1264;46091;-83
2023/07/26 06:13:12;;;;;;;9.40;6.20;;;;;;;15.35;100.00;99479.04;178209;1259;46176;-83
2023/07/26 06:17:15;;;;;;;7.70;4.90;;;;;;;15.29;100.00;99483.82;177586;1259;59601;-83
2023/07/26 06:21:19;;;;;;;8.60;5.30;;;;;;;15.28;100.00;99493.58;178425;1259;46109;-83
2023/07/26 06:25:22;;;;;;;6.50;5.80;;;;;;;15.20;100.00;99501.11;176998;1260;46105;-83
2023/07/26 06:29:26;;;;;;;10.40;6.70;;;;;;;15.21;100.00;99504.89;177807;1261;45987;-83
2023/07/26 06:33:29;;;;;;;7.70;5.10;;;;;;;15.23;100.00;99514.33;177147;1263;45963;-83
2023/07/26 06:37:33;;;;;;;7.80;6.20;;;;;;;15.28;100.00;99516.25;177706;1260;58253;-82
2023/07/26 06:41:36;;;;;;;7.20;6.10;;;;;;;15.44;100.00;99515.89;178048;1261;46246;-83
2023/07/26 06:45:47;;;;;;;6.30;5.70;;;;;;;15.55;100.00;99521.43;177937;1262;46090;-83
2023/07/26 06:49:50;;;;;;;15.00;6.60;;;;;;;15.65;100.00;99518.38;178168;1259;46706;-85
2023/07/26 06:53:53;;;;;;;9.00;6.00;;;;;;;15.80;100.00;99517.63;177806;1259;45994;-82
2023/07/26 06:57:56;;;;;;;8.20;6.30;;;;;;;15.92;100.00;99523.30;177457;1260;57880;-82
2023/07/26 07:02:00;;;;;;;7.50;4.70;;;;;;;15.97;100.00;99526.66;178808;1259;46027;-83
2023/07/26 07:06:03;;;;;;;8.90;3.70;;;;;;;16.06;100.00;99526.48;177660;1258;45991;-83
2023/07/26 07:10:06;;;;;;;6.90;3.80;;;;;;;16.17;100.00;99523.07;178428;1258;46023;-83
2023/07/26 07:14:10;;;;;;;7.20;5.30;;;;;;;16.30;100.00;99527.36;178040;1259;45750;-83
2023/07/26 07:18:14;;;;;;;10.80;3.90;;;;;;;16.36;100.00;99538.27;177906;1259;58193;-83
2023/07/26 07:22:19;;;;;;;4.40;3.10;;;;;;;16.42;100.00;99547.12;177563;1260;46066;-83
2023/07/26 07:26:22;;;;;;;10.50;3.90;;;;;;;16.26;100.00;99553.17;177820;1259;46140;-83
2023/07/26 07:30:25;;;;;;;6.80;3.60;;;;;;;16.14;100.00;99560.45;178060;1259;45120;-82
2023/07/26 07:34:28;;;;;;;6.00;4.40;;;;;;;16.10;100.00;99567.15;177480;1259;46109;-83
2023/07/26 07:38:31;;;;;;;6.70;3.90;;;;;;;16.21;100.00;99568.65;178059;1262;57897;-83
2023/07/26 07:42:35;;;;;;;4.80;3.40;;;;;;;16.43;100.00;99569.80;177636;1259;46224;-83
2023/07/26 07:46:38;;;;;;;7.00;3.60;;;;;;;16.67;100.00;99567.70;177454;1259;46110;-83
2023/07/26 07:50:55;;;;;;;9.20;4.20;;;;;;;16.89;100.00;99572.64;178089;1259;46120;-83
2023/07/26 07:54:58;;;;;;;5.10;3.50;;;;;;;16.95;100.00;99575.64;177193;1259;46272;-83
2023/07/26 07:59:02;;;;;;;8.20;4.30;;;;;;;16.87;100.00;99574.65;177884;1259;59407;-82
2023/07/26 08:03:05;;;;;;;4.40;3.60;;;;;;;17.02;100.00;99576.58;179350;1259;46512;-83
2023/07/26 08:07:09;;;;;;;6.70;3.20;;;;;;;17.12;100.00;99579.20;178116;1259;46072;-83
2023/07/26 08:11:12;;;;;;;6.50;3.60;;;;;;;17.27;100.00;99583.48;177606;1258;45920;-82
2023/07/26 08:15:15;;;;;;;6.60;3.70;;;;;;;17.30;100.00;99582.73;178780;1258;44726;-82
2023/07/26 08:19:19;;;;;;;7.40;2.70;;;;;;;17.23;100.00;99586.24;177281;1262;58685;-82
2023/07/26 08:23:22;;;;;;;4.60;2.60;;;;;;;17.24;100.00;99589.59;177171;1259;46195;-82
2023/07/26 08:27:26;;;;;;;6.40;3.50;;;;;;;17.15;100.00;99589.40;177989;1258;44008;-82
2023/07/26 08:31:30;;;;;;;5.10;2.90;;;;;;;17.11;100.00;99590.73;178206;1259;46133;-82
2023/07/26 08:35:33;;;;;;;5.20;3.70;;;;;;;17.17;100.00;99591.98;178082;1261;45998;-83
2023/07/26 08:39:37;;;;;;;5.50;3.70;;;;;;;17.31;100.00;99598.00;178142;1259;58822;-82
2023/07/26 08:43:42;;;;;;;4.60;2.70;;;;;;;17.51;100.00;99596.67;177395;1259;46124;-83
2023/07/26 08:47:46;;;;;;;4.80;2.50;;;;;;;17.66;100.00;99611.04;177674;1263;46118;-82
2023/07/26 08:51:50;;;;;;;3.40;1.70;;;;;;;17.88;100.00;99612.91;177522;1263;46040;-82
2023/07/26 08:55:53;;;;;;;7.00;3.40;;;;;;;17.98;99.63;99616.45;177660;1259;44680;-82
2023/07/26 08:59:57;;;;;;;3.80;2.50;;;;;;;18.16;98.74;99622.33;177595;1261;59641;-83
2023/07/26 09:04:00;;;;;;;3.90;2.90;;;;;;;18.20;97.27;99621.95;178413;1261;46130;-83
2023/07/26 09:08:04;;;;;;;5.50;3.40;;;;;;;18.31;95.65;99629.61;177476;1260;44654;-83
2023/07/26 09:12:08;;;;;;;2.80;2.40;;;;;;;18.40;96.09;99633.27;177937;1261;45996;-83
2023/07/26 09:16:11;;;;;;;4.90;3.50;;;;;;;18.48;97.89;99634.67;177804;1260;45374;-83
2023/07/26 09:20:25;;;;;;;7.40;3.70;;;;;;;18.34;99.42;99642.92;178567;1261;58744;-85
2023/07/26 09:24:36;;;;;;;4.40;2.70;;;;;;;18.44;98.61;99644.95;177683;1260;46313;-83
2023/07/26 09:28:52;;;;;;;4.10;3.20;;;;;;;18.50;96.48;99646.29;178034;1263;46002;-83
2023/07/26 09:32:56;;;;;;;6.00;2.00;;;;;;;18.57;95.13;99638.56;177663;1261;46130;-82
2023/07/26 09:37:00;;;;;;;6.00;2.00;;;;;;;18.47;92.03;99642.95;179018;1259;44214;-82
2023/07/26 09:41:21;;;;;;;5.00;2.70;;;;;;;18.48;89.46;99642.95;178104;1262;58130;-82
2023/07/26 09:45:24;;;;;;;2.20;2.10;;;;;;;18.32;88.79;99646.37;179252;1260;46119;-82
2023/07/26 09:49:29;;;;;;;3.40;2.70;;;;;;;18.31;86.48;99643.47;177653;1260;46068;-81
2023/07/26 09:53:36;;;;;;;5.60;2.90;;;;;;;18.46;88.89;99638.01;177840;1263;174154;-82
2023/07/26 09:57:40;;;;;;;2.60;2.20;;;;;;;18.76;86.87;99629.97;178254;1261;45997;-82
2023/07/26 10:01:45;;;;;;;4.00;1.70;;;;;;;19.18;85.62;99624.64;177709;1261;58000;-82
2023/07/26 10:05:53;;;;;;;3.20;2.00;;;;;;;19.34;79.73;99625.27;177760;1261;46331;-82
2023/07/26 10:09:58;;;;;;;8.20;2.00;;;;;;;19.40;77.75;99617.41;178738;1259;48043;-82
2023/07/26 10:14:03;;;;;;;2.50;1.30;;;;;;;19.55;78.90;99612.49;178708;1261;44188;-82
2023/07/26 10:18:07;;;;;;;6.20;2.30;;;;;;;19.80;75.89;99609.97;178299;1260;44142;-82
2023/07/26 10:22:11;;;;;;;2.90;1.80;;;;;;;19.94;73.99;99599.52;178787;1260;58257;-82
2023/07/26 10:26:17;;;;;;;5.20;2.20;;;;;;;20.00;72.09;99593.23;178480;1260;46136;-82
2023/07/26 10:30:20;;;;;;;2.40;1.90;;;;;;;20.22;74.87;99581.28;178529;1261;46096;-82
2023/07/26 10:34:24;;;;;;;4.10;1.40;;;;;;;20.60;72.30;99581.58;179211;1258;45207;-82
2023/07/26 10:38:28;;;;;;;5.40;1.80;;;;;;;20.66;67.47;99578.63;178691;1261;45859;-82
2023/07/26 10:42:31;;;;;;;1.00;0.70;;;;;;;20.55;66.45;99581.75;178653;1260;58268;-83
2023/07/26 10:46:54;;;;;;;3.00;1.60;;;;;;;20.57;66.87;99575.48;178038;1260;46085;-82
2023/07/26 10:50:58;;;;;;;5.40;1.70;;;;;;;20.56;67.76;99579.30;178689;1260;46089;-82
2023/07/26 10:55:19;;;;;;;2.40;1.80;;;;;;;20.69;67.01;99578.45;178819;1260;45959;-82
2023/07/26 10:59:25;;;;;;;3.30;1.40;;;;;;;20.82;66.61;99584.39;178707;1260;45918;-82
2023/07/26 11:03:30;;;;;;;1.20;0.80;;;;;;;20.96;64.47;99582.05;178962;1260;58075;-82
2023/07/26 11:07:58;;;;;;;2.90;1.50;;;;;;;20.69;63.70;99585.64;179428;1260;45135;-82
2023/07/26 11:12:13;;;;;;;1.70;1.10;;;;;;;20.48;64.93;99592.17;178326;1259;46153;-82
2023/07/26 11:16:18;;;;;;;2.80;1.20;;;;;;;19.91;65.88;99601.48;178260;1260;46573;-82
2023/07/26 11:20:22;;;;;;;1.60;0.80;;;;;;;19.39;67.68;99602.95;178638;1259;46064;-82
2023/07/26 11:24:28;;;;;;;4.40;1.00;;;;;;;18.94;70.15;99610.07;178300;1260;59587;-82
2023/07/26 11:28:33;;;;;;;4.10;1.20;;;;;;;18.86;71.48;99611.48;177717;1262;46194;-82
2023/07/26 11:32:42;;;;;;;3.40;1.80;;;;;;;18.92;71.39;99609.81;179089;1260;46507;-82
2023/07/26 11:36:46;;;;;;;5.40;1.40;;;;;;;19.04;68.78;99612.74;178445;1260;45965;-82
2023/07/26 11:40:53;;;;;;;2.00;1.40;;;;;;;19.32;69.35;99603.84;178360;1260;45974;-82
2023/07/26 11:44:56;;;;;;;4.60;1.40;;;;;;;19.54;66.50;99595.05;178046;1260;59229;-82
2023/07/26 11:48:59;;;;;;;4.10;1.30;;;;;;;19.65;65.96;99601.69;178360;1259;46038;-82
2023/07/26 11:53:12;;;;;;;1.90;1.60;;;;;;;19.92;66.29;99598.71;178233;1260;44657;-81
2023/07/26 11:57:21;;;;;;;2.40;1.30;;;;;;;20.20;64.95;99590.10;178254;1260;46101;-82
2023/07/26 12:01:25;;;;;;;3.90;1.70;;;;;;;20.28;63.57;99590.19;178087;1260;46016;-83
2023/07/26 12:05:29;;;;;;;1.30;0.80;;;;;;;20.35;63.36;99592.51;178430;1261;59550;-83
2023/07/26 12:09:32;;;;;;;3.10;0.60;;;;;;;20.61;63.43;99580.41;178542;1260;46102;-83
2023/07/26 12:13:36;;;;;;;5.30;1.50;;;;;;;20.65;60.55;99583.08;178462;1260;46423;-83
2023/07/26 12:18:01;;;;;;;4.60;1.90;;;;;;;20.62;60.71;99583.20;179332;1259;44134;-83
2023/07/26 12:22:08;;;;;;;7.40;1.60;;;;;;;20.58;59.33;99583.12;179121;1258;45991;-82
2023/07/26 12:26:12;;;;;;;0.90;0.70;;;;;;;20.53;59.38;99577.52;179004;1260;59631;-83
2023/07/26 12:30:19;;;;;;;3.10;1.60;;;;;;;20.45;59.56;99576.11;178709;1261;46055;-82
2023/07/26 12:34:32;;;;;;;1.70;1.00;;;;;;;20.45;61.51;99578.17;178253;1260;45984;-83
2023/07/26 12:38:36;;;;;;;1.50;0.60;;;;;;;20.46;61.10;99571.57;178394;1260;47498;-83
2023/07/26 12:42:54;;;;;;;4.40;1.80;;;;;;;20.78;60.73;99566.09;178304;1261;46782;-83
2023/07/26 12:46:59;;;;;;;5.60;1.30;;;;;;;21.32;59.55;99556.84;178282;1261;59372;-83
2023/07/26 12:51:26;;;;;;;4.70;1.10;;;;;;;21.70;53.50;99554.98;178493;1260;46110;-83
2023/07/26 12:55:30;;;;;;;1.30;1.10;;;;;;;22.17;52.67;99548.78;178611;1260;44685;-82
2023/07/26 12:59:33;;;;;;;1.40;0.60;;;;;;;22.50;52.17;99547.65;178773;1259;46124;-83
2023/07/26 13:03:37;;;;;;;2.90;1.40;;;;;;;22.76;50.35;99549.13;178788;1259;46117;-83
2023/07/26 13:07:41;;;;;;;2.20;1.40;;;;;;;22.73;49.74;99547.48;178790;1261;58091;-82
2023/07/26 13:11:44;;;;;;;1.20;0.80;;;;;;;22.73;51.92;99544.41;179052;1260;44200;-83
2023/07/26 13:15:48;;;;;;;4.00;1.00;;;;;;;22.73;50.67;99553.79;179064;1263;46160;-83
2023/07/26 13:19:54;;;;;;;1.40;0.60;;;;;;;22.89;51.33;99554.08;178980;1258;45980;-83
2023/07/26 13:23:58;;;;;;;3.50;0.90;;;;;;;23.06;49.96;99557.15;179656;1259;46133;-83
2023/07/26 13:28:02;;;;;;;1.20;0.70;;;;;;;23.06;48.79;99556.93;179312;1259;58207;-82
2023/07/26 13:32:06;;;;;;;1.30;0.80;;;;;;;22.82;47.56;99544.07;179473;1259;44588;-82
2023/07/26 13:36:09;;;;;;;4.80;1.30;;;;;;;22.67;48.57;99544.98;179392;1260;46009;-82
2023/07/26 13:40:17;;;;;;;7.30;0.70;;;;;;;22.84;48.60;99548.58;179674;1260;45957;-82
2023/07/26 13:44:21;;;;;;;7.50;1.20;;;;;;;22.94;49.00;99556.95;179828;1259;46105;-83
2023/07/26 13:48:24;;;;;;;1.40;0.80;;;;;;;23.01;49.36;99552.38;179788;1258;57900;-82
2023/07/26 13:52:28;;;;;;;1.60;1.00;;;;;;;23.06;49.43;99545.96;179907;1259;45977;-82
2023/07/26 13:56:32;;;;;;;3.00;0.60;;;;;;;23.07;48.44;99552.13;179622;1259;46044;-83
2023/07/26 14:00:36;;;;;;;2.50;0.60;;;;;;;22.96;49.32;99550.16;180245;1260;44313;-83
2023/07/26 14:04:40;;;;;;;3.50;1.20;;;;;;;23.21;47.65;99544.13;179485;1258;44602;-83
2023/07/26 14:08:45;;;;;;;2.00;0.90;;;;;;;23.45;47.77;99544.98;179762;1259;59268;-83
2023/07/26 14:12:49;;;;;;;;;;;;;;;23.72;47.42;99544.10;179741;1262;45942;-83
2023/07/26 14:16:53;;;;;;;1.60;1.10;;;;;;;23.39;48.38;99545.88;180322;1260;43706;-83
2023/07/26 14:20:57;;;;;;;2.10;1.00;;;;;;;23.09;49.02;99555.82;180139;1259;46051;-83
2023/07/26 14:25:00;;;;;;;2.70;1.40;;;;;;;22.73;49.61;99560.25;180103;1259;43938;-83
2023/07/26 14:29:04;;;;;;;2.20;1.40;;;;;;;22.48;51.08;99568.39;180155;1259;58109;-82
2023/07/26 14:33:08;;;;;;;2.20;0.70;;;;;;;22.47;52.48;99569.88;179714;1260;46953;-82
2023/07/26 14:37:12;;;;;;;2.00;0.70;;;;;;;22.37;50.53;99570.68;180050;1260;46442;-82
2023/07/26 14:41:15;;;;;;;2.00;1.00;;;;;;;22.24;50.85;99574.52;179342;1259;45912;-83
2023/07/26 14:45:18;;;;;;;3.00;1.30;;;;;;;22.21;50.87;99568.44;180228;1259;43749;-82
2023/07/26 14:49:22;;;;;;;2.80;1.50;;;;;;;22.40;51.62;99567.11;179622;1259;59430;-83
2023/07/26 14:53:25;;;;;;;1.10;0.60;;;;;;;22.61;50.34;99575.46;179888;1260;45936;-83
2023/07/26 14:57:28;;;;;;;1.40;1.20;;;;;;;22.75;50.85;99566.48;179674;1258;45898;-82
2023/07/26 15:01:31;;;;;;;3.20;1.10;;;;;;;22.61;50.51;99575.09;179608;1258;44771;-82
2023/07/26 15:05:37;;;;;;;1.80;1.00;;;;;;;22.32;51.89;99576.27;179294;1260;43598;-83
2023/07/26 15:09:40;;;;;;;1.40;0.90;;;;;;;22.08;52.73;99578.61;179398;1258;59033;-83
2023/07/26 15:13:43;;;;;;;1.80;0.90;;;;;;;21.93;52.26;99584.67;179593;1259;45958;-83
2023/07/26 15:17:47;;;;;;;2.10;1.00;;;;;;;21.76;52.53;99587.94;179918;1259;45191;-82
2023/07/26 15:21:50;;;;;;;2.80;1.10;;;;;;;21.70;53.73;99592.16;179854;1258;44062;-83
2023/07/26 15:25:53;;;;;;;2.20;1.00;;;;;;;21.71;53.79;99592.04;179454;1259;43879;-84
2023/07/26 15:29:56;;;;;;;1.40;1.00;;;;;;;21.93;54.43;99593.05;179240;1259;58252;-83
2023/07/26 15:33:59;;;;;;;2.30;1.40;;;;;;;21.99;53.53;99591.80;179990;1260;46010;-83
2023/07/26 15:38:03;;;;;;;1.00;0.80;;;;;;;22.00;54.74;99591.50;179542;1259;44307;-83
2023/07/26 15:42:07;;;;;;;4.40;1.70;;;;;;;22.17;54.94;99582.05;180326;1259;44020;-82
2023/07/26 15:46:10;;;;;;;2.30;1.10;;;;;;;22.41;53.82;99580.83;179957;1258;45995;-83
2023/07/26 15:50:33;;;;;;;1.20;0.60;;;;;;;22.23;53.84;99593.84;179275;1259;60016;-83
2023/07/26 15:54:36;;;;;;;1.30;1.00;;;;;;;21.89;52.01;99594.60;179708;1260;46137;-83
2023/07/26 15:58:39;;;;;;;0.80;0.70;;;;;;;21.70;52.30;99598.33;180107;1259;45908;-83
2023/07/26 16:02:43;;;;;;;2.30;0.80;;;;;;;21.51;52.83;99600.71;179581;1259;46056;-83
2023/07/26 16:06:49;;;;;;;2.10;0.90;;;;;;;21.44;53.40;99606.98;179577;1262;46085;-82
2023/07/26 16:10:56;;;;;;;2.40;1.10;;;;;;;21.20;54.17;99609.94;179690;1259;57110;-83
2023/07/26 16:14:59;;;;;;;1.40;1.30;;;;;;;20.92;56.79;99611.41;179036;1259;46172;-84
2023/07/26 16:19:07;;;;;;;1.40;1.00;;;;;;;20.46;57.55;99616.12;179127;1259;46086;-83
2023/07/26 16:23:13;;;;;;;2.60;1.50;;;;;;;20.13;57.69;99618.42;179159;1259;45972;-84
2023/07/26 16:27:17;;;;;;;2.00;0.90;;;;;;;19.97;57.59;99621.16;179346;1259;43987;-84
2023/07/26 16:31:20;;;;;;;1.50;1.30;;;;;;;19.83;58.59;99621.31;179566;1258;58806;-84
2023/07/26 16:35:23;;;;;;;2.30;1.10;;;;;;;19.78;59.76;99626.27;179303;1258;46212;-84
2023/07/26 16:39:26;;;;;;;3.40;1.80;;;;;;;19.77;59.78;99630.21;178665;1259;46136;-84
2023/07/26 16:43:29;;;;;;;1.30;0.80;;;;;;;19.76;60.16;99629.55;178783;1259;45992;-83
2023/07/26 16:47:34;;;;;;;3.20;0.90;;;;;;;19.91;60.82;99633.20;179037;1260;44747;-84
2023/07/26 16:51:37;;;;;;;0.80;0.70;;;;;;;20.15;59.46;99631.30;179610;1259;58326;-83
2023/07/26 16:55:40;;;;;;;1.20;0.90;;;;;;;20.40;58.14;99632.15;179522;1259;45872;-84
2023/07/26 16:59:43;;;;;;;4.60;1.30;;;;;;;20.46;57.88;99629.12;180003;1259;45949;-83
2023/07/26 17:03:46;;;;;;;1.70;0.80;;;;;;;20.35;58.19;99635.73;180097;1258;45096;-84
2023/07/26 17:07:50;;;;;;;1.10;0.60;;;;;;;20.11;58.35;99646.70;179179;1259;46123;-84
2023/07/26 17:11:53;;;;;;;1.50;0.80;;;;;;;19.78;59.11;99651.18;179713;1260;59394;-83
2023/07/26 17:15:56;;;;;;;1.40;0.90;;;;;;;19.54;60.20;99660.13;179130;1260;46070;-84
2023/07/26 17:19:59;;;;;;;1.40;1.20;;;;;;;19.29;59.45;99663.93;178969;1260;45988;-83
2023/07/26 17:24:03;;;;;;;1.80;1.10;;;;;;;19.15;60.21;99666.38;179444;1258;44087;-83
2023/07/26 17:28:06;;;;;;;1.70;1.00;;;;;;;19.03;60.05;99662.19;179025;1258;45997;-83
2023/07/26 17:32:09;;;;;;;1.10;0.60;;;;;;;18.92;59.43;99660.64;178403;1263;58223;-82
2023/07/26 17:36:15;;;;;;;0.90;0.80;;;;;;;18.90;58.79;99661.70;179076;1259;46092;-84
2023/07/26 17:40:20;;;;;;;;;;;;;;;18.90;57.41;99665.59;179694;1260;44625;-84
2023/07/26 17:44:24;;;;;;;1.00;0.90;;;;;;;18.87;57.44;99669.14;179643;1259;44403;-83
2023/07/26 17:48:31;;;;;;;3.40;1.00;;;;;;;18.84;58.39;99671.94;179574;1259;46037;-83
2023/07/26 17:52:34;;;;;;;4.00;0.70;;;;;;;18.74;60.09;99677.86;178485;1259;58632;-83
2023/07/26 17:56:38;;;;;;;10.80;0.60;;;;;;;18.69;60.50;99688.80;178562;1259;46141;-82
2023/07/26 18:00:42;;;;;;;2.50;1.20;;;;;;;18.66;61.48;99694.87;179325;1258;44697;-83
2023/07/26 18:04:47;;;;;;;3.10;1.40;;;;;;;18.63;62.02;99694.98;179230;1259;45968;-83
2023/07/26 18:08:50;;;;;;;2.20;0.80;;;;;;;18.56;63.73;99700.13;180210;1259;44069;-83
2023/07/26 18:12:53;;;;;;;2.30;1.00;;;;;;;18.50;65.14;99704.66;179267;1259;59001;-83
2023/07/26 18:16:56;;;;;;;2.00;1.20;;;;;;;18.49;65.68;99707.44;178161;1262;45869;-82
2023/07/26 18:21:06;;;;;;;3.20;1.20;;;;;;;18.50;66.11;99709.89;179050;1260;46071;-83
2023/07/26 18:25:16;;;;;;;1.80;0.90;;;;;;;18.42;66.47;99714.20;180235;1258;44044;-83
2023/07/26 18:29:19;;;;;;;2.80;1.60;;;;;;;18.37;66.96;99716.34;180910;1259;44844;-83
2023/07/26 18:33:22;;;;;;;3.10;1.20;;;;;;;18.27;67.62;99725.92;179289;1259;59482;-82
2023/07/26 18:37:25;;;;;;;2.20;1.40;;;;;;;18.16;68.25;99727.33;179318;1259;46060;-83
2023/07/26 18:41:29;;;;;;;4.30;1.10;;;;;;;18.08;68.87;99730.02;179936;1259;44729;-83
2023/07/26 18:45:33;;;;;;;1.60;1.00;;;;;;;17.94;69.08;99733.63;180969;1259;43997;-83
2023/07/26 18:49:38;;;;;;;3.10;1.30;;;;;;;17.82;69.13;99746.46;180692;1259;43857;-82
2023/07/26 18:53:41;;;;;;;7.70;2.90;;;;;;;17.71;69.93;99753.56;180607;1259;59020;-81
2023/07/26 18:57:45;;;;;;;2.20;1.40;;;;;;;17.58;70.47;99754.36;179949;1259;46004;-81